Time,TemperatureF,DewpointF,PressureIn,WindDirection,WindDirectionDegrees,WindSpeedMPH,WindSpeedGustMPH,Humidity,HourlyPrecipIn,Conditions,Clouds,dailyrainin,SolarRadiationWatts/m^2,SoftwareType,DateUTC
2013-07-22 00:01:00,74.0,74.0,30.10,SSW,205,2.0,6.0,99,0.00,,,0.02,0.000000,,2013-07-22 04:01:00,
2013-07-22 00:10:00,74.0,74.0,30.12,SW,215,4.0,8.0,100,0.00,,,0.02,0.000000,,2013-07-22 04:10:00,
2013-07-22 00:33:00,74.0,74.0,30.12,SW,215,4.0,8.0,100,0.00,,,0.02,0.000000,,2013-07-22 04:33:00,
2013-07-22 00:43:00,74.0,74.0,30.12,SW,215,4.0,8.0,100,0.00,,,0.02,0.000000,,2013-07-22 04:43:00,
2013-07-22 01:02:00,74.0,74.0,30.12,SW,215,4.0,8.0,100,0.00,,,0.02,0.000000,,2013-07-22 05:02:00,
2013-07-22 01:10:00,72.0,72.0,30.09,WSW,248,3.0,9.0,99,0.00,,,0.02,0.000000,,2013-07-22 05:10:00,
2013-07-22 01:32:00,72.0,72.0,30.09,WSW,248,3.0,9.0,99,0.00,,,0.02,0.000000,,2013-07-22 05:32:00,
2013-07-22 01:43:00,72.0,72.0,30.09,WSW,248,3.0,9.0,99,0.00,,,0.02,0.000000,,2013-07-22 05:43:00,
2013-07-22 01:52:00,72.0,72.0,30.09,WSW,248,3.0,9.0,99,0.00,,,0.02,0.000000,,2013-07-22 05:52:00,
2013-07-22 02:01:00,72.0,72.0,30.09,WSW,248,3.0,9.0,99,0.00,,,0.02,0.000000,,2013-07-22 06:01:00,
2013-07-22 02:10:00,71.0,71.0,30.06,West,266,1.0,8.0,99,0.00,,,0.02,0.000000,,2013-07-22 06:10:00,
2013-07-22 02:33:00,71.0,71.0,30.06,West,266,1.0,8.0,99,0.00,,,0.02,0.000000,,2013-07-22 06:33:00,
2013-07-22 02:43:00,71.0,71.0,30.06,West,266,1.0,8.0,99,0.00,,,0.02,0.000000,,2013-07-22 06:43:00,
2013-07-22 02:52:00,71.0,71.0,30.06,West,266,1.0,8.0,99,0.00,,,0.02,0.000000,,2013-07-22 06:52:00,
2013-07-22 03:01:00,71.0,71.0,30.06,West,266,1.0,8.0,99,0.00,,,0.02,0.000000,,2013-07-22 07:01:00,
2013-07-22 03:10:00,71.0,71.0,30.04,WSW,239,2.0,5.0,99,0.00,,,0.02,0.000000,,2013-07-22 07:10:00,
2013-07-22 03:43:00,71.0,71.0,30.04,WSW,239,2.0,5.0,99,0.00,,,0.02,0.000000,,2013-07-22 07:43:00,
2013-07-22 03:53:00,71.0,71.0,30.04,WSW,239,2.0,5.0,99,0.00,,,0.02,0.000000,,2013-07-22 07:53:00,
2013-07-22 04:02:00,71.0,71.0,30.04,WSW,239,2.0,5.0,99,0.00,,,0.02,0.000000,,2013-07-22 08:02:00,
2013-07-22 04:10:00,70.0,70.0,30.04,South,184,2.0,4.0,99,0.00,,,0.02,0.000000,,2013-07-22 08:10:00,
2013-07-22 04:43:00,70.0,70.0,30.04,South,184,2.0,4.0,99,0.00,,,0.02,0.000000,,2013-07-22 08:43:00,
2013-07-22 04:52:00,70.0,70.0,30.04,South,184,2.0,4.0,99,0.00,,,0.02,0.000000,,2013-07-22 08:52:00,
2013-07-22 05:02:00,70.0,70.0,30.04,South,184,2.0,4.0,99,0.00,,,0.02,0.000000,,2013-07-22 09:02:00,
2013-07-22 05:10:00,69.0,69.0,30.03,SSW,201,1.0,4.0,99,0.00,,,0.02,0.000000,,2013-07-22 09:10:00,
2013-07-22 05:33:00,69.0,69.0,30.03,SSW,201,1.0,4.0,99,0.00,,,0.02,0.000000,,2013-07-22 09:33:00,
2013-07-22 05:42:00,69.0,69.0,30.03,SSW,201,1.0,4.0,99,0.00,,,0.02,0.000000,,2013-07-22 09:42:00,
2013-07-22 05:52:00,69.0,69.0,30.03,SSW,201,1.0,4.0,99,0.00,,,0.02,0.000000,,2013-07-22 09:52:00,
2013-07-22 06:02:00,69.0,69.0,30.03,SSW,201,1.0,4.0,99,0.00,,,0.02,0.000000,,2013-07-22 10:02:00,
2013-07-22 06:10:00,70.0,70.0,30.05,SSW,193,3.0,7.0,99,0.00,,,0.02,0.000000,,2013-07-22 10:10:00,
2013-07-22 06:32:00,70.0,70.0,30.05,SSW,193,3.0,7.0,99,0.00,,,0.02,0.000000,,2013-07-22 10:32:00,
2013-07-22 06:43:00,70.0,70.0,30.05,SSW,193,3.0,7.0,99,0.00,,,0.02,0.000000,,2013-07-22 10:43:00,
2013-07-22 06:53:00,70.0,70.0,30.05,SSW,193,3.0,7.0,99,0.00,,,0.02,0.000000,,2013-07-22 10:53:00,
2013-07-22 07:02:00,70.0,70.0,30.05,SSW,193,3.0,7.0,99,0.00,,,0.02,0.000000,,2013-07-22 11:02:00,
2013-07-22 07:10:00,70.0,70.0,30.06,WSW,238,3.0,8.0,99,0.00,,,0.02,2.000000,,2013-07-22 11:10:00,
2013-07-22 07:32:00,70.0,70.0,30.06,WSW,238,3.0,8.0,99,0.00,,,0.02,2.000000,,2013-07-22 11:32:00,
2013-07-22 07:43:00,70.0,70.0,30.06,WSW,238,3.0,8.0,99,0.00,,,0.02,2.000000,,2013-07-22 11:43:00,
2013-07-22 07:52:00,70.0,70.0,30.06,WSW,238,3.0,8.0,99,0.00,,,0.02,2.000000,,2013-07-22 11:52:00,
2013-07-22 08:02:00,70.0,70.0,30.06,WSW,238,3.0,8.0,99,0.00,,,0.02,2.000000,,2013-07-22 12:02:00,
2013-07-22 08:10:00,71.0,71.0,30.08,NNW,338,3.0,9.0,99,0.00,,,0.02,48.000000,,2013-07-22 12:10:00,
2013-07-22 08:43:00,71.0,71.0,30.08,NNW,338,3.0,9.0,99,0.00,,,0.02,48.000000,,2013-07-22 12:43:00,
2013-07-22 08:53:00,71.0,71.0,30.08,NNW,338,3.0,9.0,99,0.00,,,0.02,48.000000,,2013-07-22 12:53:00,
2013-07-22 09:01:00,71.0,71.0,30.08,NNW,338,3.0,9.0,99,0.00,,,0.02,48.000000,,2013-07-22 13:01:00,
2013-07-22 09:10:00,74.0,67.0,30.09,SW,228,3.0,8.0,80,0.00,,,0.02,94.000000,,2013-07-22 13:10:00,
2013-07-22 09:43:00,74.0,67.0,30.09,SW,228,3.0,8.0,80,0.00,,,0.02,94.000000,,2013-07-22 13:43:00,
2013-07-22 09:53:00,74.0,67.0,30.09,SW,228,3.0,8.0,80,0.00,,,0.02,94.000000,,2013-07-22 13:53:00,
2013-07-22 10:02:00,74.0,67.0,30.09,SW,228,3.0,8.0,80,0.00,,,0.02,94.000000,,2013-07-22 14:02:00,
2013-07-22 10:10:00,76.0,68.0,30.09,SSW,212,4.0,8.0,76,0.00,,,0.02,148.000000,,2013-07-22 14:10:00,
2013-07-22 10:43:00,76.0,68.0,30.09,SSW,212,4.0,8.0,76,0.00,,,0.02,148.000000,,2013-07-22 14:43:00,
2013-07-22 10:53:00,76.0,68.0,30.09,SSW,212,4.0,8.0,76,0.00,,,0.02,148.000000,,2013-07-22 14:53:00,
2013-07-22 11:02:00,76.0,68.0,30.09,SSW,212,4.0,8.0,76,0.00,,,0.02,148.000000,,2013-07-22 15:02:00,
2013-07-22 11:10:00,81.0,70.0,30.10,South,188,4.0,9.0,69,0.00,,,-99.99,353.000000,,2013-07-22 15:10:00,
2013-07-22 11:43:00,81.0,70.0,30.10,South,188,4.0,9.0,69,0.00,,,-99.99,353.000000,,2013-07-22 15:43:00,
2013-07-22 11:52:00,81.0,70.0,30.10,South,188,4.0,9.0,69,0.00,,,-99.99,353.000000,,2013-07-22 15:52:00,
2013-07-22 12:01:00,81.0,70.0,30.10,South,188,4.0,9.0,69,0.00,,,-99.99,353.000000,,2013-07-22 16:01:00,
2013-07-22 12:10:00,80.0,69.0,30.09,SW,226,5.0,11.0,70,0.00,,,0.02,590.000000,,2013-07-22 16:10:00,
2013-07-22 12:43:00,80.0,69.0,30.09,SW,226,5.0,11.0,70,0.00,,,0.02,590.000000,,2013-07-22 16:43:00,
2013-07-22 12:52:00,80.0,69.0,30.09,SW,226,5.0,11.0,70,0.00,,,0.02,590.000000,,2013-07-22 16:52:00,
2013-07-22 13:01:00,80.0,69.0,30.09,SW,226,5.0,11.0,70,0.00,,,0.02,590.000000,,2013-07-22 17:01:00,
2013-07-22 13:43:00,85.0,69.0,30.07,West,267,4.0,12.0,58,0.00,,,0.02,980.000000,,2013-07-22 17:43:00,
2013-07-22 13:52:00,85.0,69.0,30.07,West,267,4.0,12.0,58,0.00,,,0.02,980.000000,,2013-07-22 17:52:00,
2013-07-22 14:05:00,85.0,69.0,30.07,West,267,4.0,12.0,58,0.00,,,0.02,980.000000,,2013-07-22 18:05:00,
2013-07-22 14:10:00,86.0,71.0,30.05,SE,140,4.0,13.0,62,0.00,,,0.02,1064.000000,,2013-07-22 18:10:00,
2013-07-22 14:55:00,86.0,71.0,30.05,SE,140,4.0,13.0,62,0.00,,,0.02,1064.000000,,2013-07-22 18:55:00,
2013-07-22 15:05:00,86.0,71.0,30.05,SE,140,4.0,13.0,62,0.00,,,0.02,1064.000000,,2013-07-22 19:05:00,
2013-07-22 15:10:00,87.0,72.0,30.03,South,191,8.0,14.0,62,0.00,,,-99.99,900.000000,,2013-07-22 19:10:00,
2013-07-22 15:47:00,87.0,72.0,30.03,South,191,8.0,14.0,62,0.00,,,-99.99,900.000000,,2013-07-22 19:47:00,
2013-07-22 15:55:00,87.0,72.0,30.03,South,191,8.0,14.0,62,0.00,,,-99.99,900.000000,,2013-07-22 19:55:00,
2013-07-22 16:10:00,87.0,72.0,30.01,SSW,211,6.0,16.0,61,0.00,,,0.02,976.000000,,2013-07-22 20:10:00,
2013-07-22 16:43:00,87.0,72.0,30.01,SSW,211,6.0,16.0,61,0.00,,,0.02,976.000000,,2013-07-22 20:43:00,
2013-07-22 16:52:00,87.0,72.0,30.01,SSW,211,6.0,16.0,61,0.00,,,0.02,976.000000,,2013-07-22 20:52:00,
2013-07-22 17:01:00,87.0,72.0,30.01,SSW,211,6.0,16.0,61,0.00,,,0.02,976.000000,,2013-07-22 21:01:00,
2013-07-22 17:10:00,84.0,71.0,30.00,SW,220,5.0,16.0,65,0.00,,,0.02,773.000000,,2013-07-22 21:10:00,
2013-07-22 17:43:00,84.0,71.0,30.00,SW,220,5.0,16.0,65,0.00,,,0.02,773.000000,,2013-07-22 21:43:00,
2013-07-22 17:53:00,84.0,71.0,30.00,SW,220,5.0,16.0,65,0.00,,,0.02,773.000000,,2013-07-22 21:53:00,
2013-07-22 18:01:00,84.0,71.0,30.00,SW,220,5.0,16.0,65,0.00,,,0.02,773.000000,,2013-07-22 22:01:00,
2013-07-22 18:10:00,82.0,71.0,29.98,NNW,346,7.0,24.0,69,0.00,,,0.02,206.000000,,2013-07-22 22:10:00,
2013-07-22 18:43:00,82.0,71.0,29.98,NNW,346,7.0,24.0,69,0.00,,,0.02,206.000000,,2013-07-22 22:43:00,
2013-07-22 18:52:00,82.0,71.0,29.98,NNW,346,7.0,24.0,69,0.00,,,0.02,206.000000,,2013-07-22 22:52:00,
2013-07-22 19:01:00,82.0,71.0,29.98,NNW,346,7.0,24.0,69,0.00,,,0.02,206.000000,,2013-07-22 23:01:00,
2013-07-22 19:10:00,84.0,72.0,29.98,SW,219,3.0,19.0,67,0.00,,,0.02,483.000000,,2013-07-22 23:10:00,
2013-07-22 19:32:00,84.0,72.0,29.98,SW,219,3.0,19.0,67,0.00,,,0.02,483.000000,,2013-07-22 23:32:00,
2013-07-22 19:43:00,84.0,72.0,29.98,SW,219,3.0,19.0,67,0.00,,,0.02,483.000000,,2013-07-22 23:43:00,
2013-07-22 19:52:00,84.0,72.0,29.98,SW,219,3.0,19.0,67,0.00,,,0.02,483.000000,,2013-07-22 23:52:00,
2013-07-22 20:01:00,84.0,72.0,29.98,SW,219,3.0,19.0,67,0.00,,,0.02,483.000000,,2013-07-23 00:01:00,
2013-07-22 20:10:00,78.0,71.0,29.98,SSW,205,5.0,11.0,79,0.00,,,0.01,146.000000,,2013-07-23 00:10:00,
2013-07-22 20:43:00,78.0,71.0,29.98,SSW,205,5.0,11.0,79,0.00,,,0.01,146.000000,,2013-07-23 00:43:00,
2013-07-22 20:52:00,78.0,71.0,29.98,SSW,205,5.0,11.0,79,0.00,,,0.01,146.000000,,2013-07-23 00:52:00,
2013-07-22 21:01:00,78.0,71.0,29.98,SSW,205,5.0,11.0,79,0.00,,,0.01,146.000000,,2013-07-23 01:01:00,
2013-07-22 21:10:00,75.0,73.0,29.98,South,188,5.0,10.0,92,0.00,,,0.01,7.000000,,2013-07-23 01:10:00,
2013-07-22 21:43:00,75.0,73.0,29.98,South,188,5.0,10.0,92,0.00,,,0.01,7.000000,,2013-07-23 01:43:00,
2013-07-22 21:53:00,75.0,73.0,29.98,South,188,5.0,10.0,92,0.00,,,0.01,7.000000,,2013-07-23 01:53:00,
2013-07-22 22:02:00,75.0,73.0,29.98,South,188,5.0,10.0,92,0.00,,,0.01,7.000000,,2013-07-23 02:02:00,
2013-07-22 22:10:00,76.0,72.0,29.99,SSW,204,4.0,11.0,87,0.00,,,0.00,0.000000,,2013-07-23 02:10:00,
2013-07-22 22:43:00,76.0,72.0,29.99,SSW,204,4.0,11.0,87,0.00,,,0.00,0.000000,,2013-07-23 02:43:00,
2013-07-22 22:53:00,76.0,72.0,29.99,SSW,204,4.0,11.0,87,0.00,,,0.00,0.000000,,2013-07-23 02:53:00,
2013-07-22 23:02:00,76.0,72.0,29.99,SSW,204,4.0,11.0,87,0.00,,,0.00,0.000000,,2013-07-23 03:02:00,
2013-07-22 23:10:00,75.0,70.0,29.99,SW,221,5.0,15.0,85,0.00,,,0.00,0.000000,,2013-07-23 03:10:00,
2013-07-22 23:43:00,75.0,70.0,29.99,SW,221,5.0,15.0,85,0.00,,,0.00,0.000000,,2013-07-23 03:43:00,
2013-07-22 23:52:00,75.0,70.0,29.99,SW,221,5.0,15.0,85,0.00,,,0.00,0.000000,,2013-07-23 03:52:00,